Hilshire Village, Texas
Current Conditions -  °F | °C
As of 11:35 AM on Monday 22 Dec 2014 (Local Time) from KMCJ Reporting Station
Broken Clouds Broken Clouds  
Wind Chill: 68°   Ceiling: 1900
Heat Index: 68°   Visibility: NA
Dew Point: 59°   Wind: 8mph
Humidity: 73%   Direction: 220°SW
Pressure: 29.69"   Gusts: NA
Location:  29.7972°N, 95.4933°W
Report Text: KMCJ 221735Z AUTO 22007KT BKN019 20/15 A2969 RMK AO1
Loading
Personal Weather Stations






























Interactive Weather Map New forecast layout! Learn more

10-Day Weather Forecast

Advertisements
Track Severe Weather on mobile